Time;durP1;ratioP1;P1;durP2;ratioP2;P2;SDS_P1;SDS_P2;PMS_P1;PMS_P2;Temp;Humidity;BMP_temperature;BMP_pressure;BME280_temperature;BME280_humidity;BME280_pressure;Samples;Min_cycle;Max_cycle;Signal;HPM_P1;HPM_P2
2022/06/20 00:01:05;;;;;;;;;;;;;;;16.10;62.05;98568.97;4808346;29;20020;-77
2022/06/20 00:03:32;;;;;;;;;;;;;;;16.10;62.36;98560.88;4808493;29;20032;-77
2022/06/20 00:05:57;;;;;;;;;;;;;;;16.13;62.09;98563.19;4793557;29;20045;-77
2022/06/20 00:08:23;;;;;;;;;;;;;;;16.14;62.25;98555.97;4793478;29;20397;-76
2022/06/20 00:10:49;;;;;;;;;;;;;;;16.16;62.12;98549.38;4808078;29;19929;-78
2022/06/20 00:13:23;;;;;;;;;;;;;;;16.20;62.14;98545.28;4778130;29;20389;-77
2022/06/20 00:15:51;;;;;;;;;;;;;;;16.23;62.36;98541.41;4793367;29;19932;-77
2022/06/20 00:18:17;;;;;;;;;;;;;;;16.26;62.60;98541.91;4808487;29;20467;-76
2022/06/20 00:20:42;;;;;;;;;;;;;;;16.33;62.96;98543.88;4809414;29;19933;-78
2022/06/20 00:23:08;;;;;;;;;;;;;;;16.36;63.34;98538.13;4792960;29;19964;-77
2022/06/20 00:25:35;;;;;;;;;;;;;;;16.45;63.28;98542.44;4792880;29;20115;-77
2022/06/20 00:28:00;;;;;;;;;;;;;;;16.48;62.78;98536.69;4792828;29;19929;-77
2022/06/20 00:30:26;;;;;;;;;;;;;;;16.49;63.29;98538.38;4793041;29;19951;-77
2022/06/20 00:32:52;;;;;;;;;;;;;;;16.47;63.15;98529.59;4792936;29;20011;-77
2022/06/20 00:35:18;;;;;;;;;;;;;;;16.48;63.53;98531.31;4807968;29;19985;-79
2022/06/20 00:37:43;;;;;;;;;;;;;;;16.45;63.86;98537.06;4792941;29;20057;-78
2022/06/20 00:40:21;;;;;;;;;;;;;;;16.42;64.15;98537.41;4809011;29;20389;-77
2022/06/20 00:42:47;;;;;;;;;;;;;;;16.39;64.29;98537.75;4792830;29;19983;-77
2022/06/20 00:45:37;;;;;;;;;;;;;;;16.34;64.00;98541.00;4809060;29;20011;-77
2022/06/20 00:48:27;;;;;;;;;;;;;;;16.34;64.28;98540.16;4807845;29;19975;-78
2022/06/20 00:51:16;;;;;;;;;;;;;;;16.35;64.18;98537.28;4795699;29;20306;-77
2022/06/20 00:54:22;;;;;;;;;;;;;;;16.30;64.30;98538.84;4807953;29;19983;-77
2022/06/20 00:57:11;;;;;;;;;;;;;;;16.26;64.31;98536.50;4793807;29;19985;-77
2022/06/20 01:00:25;;;;;;;;;;;;;;;16.27;64.17;98534.63;4807910;29;19936;-77
2022/06/20 01:03:14;;;;;;;;;;;;;;;16.18;64.48;98536.56;4814735;29;19987;-78
2022/06/20 01:06:08;;;;;;;;;;;;;;;16.08;64.60;98530.56;4807364;29;19997;-77
2022/06/20 01:08:58;;;;;;;;;;;;;;;16.02;64.58;98525.84;4808018;29;19940;-78
2022/06/20 01:11:44;;;;;;;;;;;;;;;16.06;64.36;98519.13;4808016;29;20408;-77
2022/06/20 01:14:34;;;;;;;;;;;;;;;16.04;64.75;98518.44;4808411;29;20035;-76
2022/06/20 01:17:22;;;;;;;;;;;;;;;16.06;64.38;98518.25;4808565;29;19985;-76
2022/06/20 01:20:05;;;;;;;;;;;;;;;16.11;64.51;98514.03;4808665;29;20301;-80
2022/06/20 01:23:19;;;;;;;;;;;;;;;16.12;64.24;98504.06;4808231;29;19951;-78
2022/06/20 01:26:10;;;;;;;;;;;;;;;16.15;64.47;98499.16;4804172;29;19936;-77
2022/06/20 01:28:57;;;;;;;;;;;;;;;16.20;64.30;98491.38;4807665;29;19940;-77
2022/06/20 01:31:59;;;;;;;;;;;;;;;16.26;64.19;98496.06;4807283;29;19937;-77
2022/06/20 01:34:43;;;;;;;;;;;;;;;16.32;63.57;98489.09;4794788;29;19979;-80
2022/06/20 01:37:29;;;;;;;;;;;;;;;16.33;63.50;98489.94;4807054;29;20356;-77
2022/06/20 01:40:14;;;;;;;;;;;;;;;16.33;63.57;98488.09;4807516;29;19935;-80
2022/06/20 01:42:59;;;;;;;;;;;;;;;16.37;63.41;98485.88;4807197;29;19936;-84
2022/06/20 01:45:58;;;;;;;;;;;;;;;16.39;63.22;98484.66;4807108;29;19936;-80
2022/06/20 01:48:50;;;;;;;;;;;;;;;16.45;63.00;98483.94;4806600;29;19936;-82
2022/06/20 01:51:52;;;;;;;;;;;;;;;16.48;63.11;98480.88;4807053;29;19985;-80
2022/06/20 01:54:39;;;;;;;;;;;;;;;16.52;63.06;98484.06;4807966;29;19935;-83
2022/06/20 01:57:23;;;;;;;;;;;;;;;16.58;62.55;98482.47;4806919;29;19936;-81
2022/06/20 02:00:26;;;;;;;;;;;;;;;16.49;62.26;98474.47;4807183;29;19978;-82
2022/06/20 02:03:12;;;;;;;;;;;;;;;16.52;62.56;98467.88;4806774;29;20401;-81
2022/06/20 02:05:57;;;;;;;;;;;;;;;16.61;62.10;98465.94;4806889;29;20071;-83
2022/06/20 02:08:41;;;;;;;;;;;;;;;16.64;62.06;98473.66;4793557;29;19939;-82
2022/06/20 02:11:37;;;;;;;;;;;;;;;16.75;61.63;98468.69;4807499;29;20309;-81
2022/06/20 02:14:21;;;;;;;;;;;;;;;16.78;61.81;98463.97;4806011;29;19936;-79
2022/06/20 02:17:11;;;;;;;;;;;;;;;16.90;61.54;98465.19;4806346;29;20338;-77
2022/06/20 02:19:56;;;;;;;;;;;;;;;17.03;60.97;98469.94;4793438;29;19935;-83
2022/06/20 02:22:40;;;;;;;;;;;;;;;17.14;60.91;98461.38;4805933;29;20025;-78
2022/06/20 02:25:30;;;;;;;;;;;;;;;17.26;60.74;98459.03;4807247;29;20017;-79
2022/06/20 02:28:28;;;;;;;;;;;;;;;17.37;60.24;98462.09;4807151;29;19935;-87
2022/06/20 02:31:12;;;;;;;;;;;;;;;17.43;60.21;98453.25;4793381;29;20028;-81
2022/06/20 02:33:56;;;;;;;;;;;;;;;17.52;59.97;98459.38;4806189;29;20417;-79
2022/06/20 02:36:41;;;;;;;;;;;;;;;17.56;60.08;98449.88;4819509;29;20381;-80
2022/06/20 02:39:25;;;;;;;;;;;;;;;17.63;60.30;98448.09;4806757;29;19939;-79
2022/06/20 02:42:16;;;;;;;;;;;;;;;17.73;60.20;98445.94;4818886;29;19935;-80
2022/06/20 02:45:02;;;;;;;;;;;;;;;17.87;59.85;98440.72;4805757;29;20412;-77
2022/06/20 02:47:48;;;;;;;;;;;;;;;17.98;59.81;98442.91;4805834;29;19936;-78
2022/06/20 02:50:35;;;;;;;;;;;;;;;18.15;59.45;98430.78;4808235;29;19936;-79
2022/06/20 02:53:22;;;;;;;;;;;;;;;18.41;58.91;98427.50;4806642;29;19978;-79
2022/06/20 02:56:07;;;;;;;;;;;;;;;18.60;58.69;98425.16;4806623;29;20485;-78
2022/06/20 02:58:54;;;;;;;;;;;;;;;18.74;58.47;98416.13;4806947;29;20071;-78
2022/06/20 03:02:01;;;;;;;;;;;;;;;18.85;58.09;98417.47;4805455;29;19935;-79
2022/06/20 03:04:46;;;;;;;;;;;;;;;18.84;58.39;98418.47;4805245;29;19936;-83
2022/06/20 03:07:32;;;;;;;;;;;;;;;19.00;58.51;98422.75;4805781;29;19936;-78
2022/06/20 03:10:40;;;;;;;;;;;;;;;19.13;58.34;98414.69;4806279;29;20354;-77
2022/06/20 03:13:24;;;;;;;;;;;;;;;19.33;57.62;98403.94;4804782;29;19982;-78
2022/06/20 03:16:10;;;;;;;;;;;;;;;19.61;57.57;98404.69;4804853;29;20416;-78
2022/06/20 03:18:55;;;;;;;;;;;;;;;19.88;57.15;98402.91;4806209;29;19985;-77
2022/06/20 03:21:42;;;;;;;;;;;;;;;20.07;56.58;98404.00;4806570;29;20401;-78
2022/06/20 03:24:28;;;;;;;;;;;;;;;20.05;55.62;98399.84;4805265;29;19936;-77
2022/06/20 03:27:25;;;;;;;;;;;;;;;20.26;55.74;98398.78;4805403;29;20250;-79
2022/06/20 03:30:25;;;;;;;;;;;;;;;20.43;54.81;98394.63;4807323;29;20387;-79
2022/06/20 03:33:16;;;;;;;;;;;;;;;20.41;53.74;98396.72;4805682;29;20032;-78
2022/06/20 03:36:06;;;;;;;;;;;;;;;20.42;53.86;98392.94;4806340;29;20025;-79
2022/06/20 03:38:51;;;;;;;;;;;;;;;20.42;53.99;98397.53;4805602;29;19936;-77
2022/06/20 03:41:35;;;;;;;;;;;;;;;20.50;53.57;98392.78;4818009;29;20444;-77
2022/06/20 03:44:30;;;;;;;;;;;;;;;20.70;53.54;98398.19;4806063;29;19975;-78
2022/06/20 03:47:35;;;;;;;;;;;;;;;20.91;53.24;98388.13;4797476;29;19985;-79
2022/06/20 03:50:22;;;;;;;;;;;;;;;21.08;52.56;98395.59;4842625;29;19950;-78
2022/06/20 03:53:11;;;;;;;;;;;;;;;21.27;52.73;98387.59;4828613;29;19931;-77
2022/06/20 03:56:01;;;;;;;;;;;;;;;21.50;52.90;98379.78;4828784;29;20396;-78
2022/06/20 03:58:51;;;;;;;;;;;;;;;21.72;51.64;98387.63;4842367;29;20404;-76
2022/06/20 04:01:39;;;;;;;;;;;;;;;21.69;50.04;98382.63;4828635;29;20348;-78
2022/06/20 04:04:40;;;;;;;;;;;;;;;21.68;50.35;98370.09;4842504;29;20039;-78
2022/06/20 04:07:34;;;;;;;;;;;;;;;21.89;50.19;98379.78;4828542;29;20341;-76
2022/06/20 04:13:35;;;;;;;;;;;;;;;22.02;50.20;98366.94;4828650;29;19981;-77
2022/06/20 04:16:22;;;;;;;;;;;;;;;22.29;49.94;98373.03;4815909;29;20297;-76
2022/06/20 04:19:14;;;;;;;;;;;;;;;22.48;49.25;98371.19;4827891;29;20301;-77
2022/06/20 04:22:03;;;;;;;;;;;;;;;22.72;47.99;98371.41;4815429;29;20400;-77
2022/06/20 04:24:48;;;;;;;;;;;;;;;22.77;47.56;98366.13;4841971;29;20435;-78
2022/06/20 04:27:41;;;;;;;;;;;;;;;22.75;47.46;98349.16;4828345;29;19971;-76
2022/06/20 04:30:34;;;;;;;;;;;;;;;22.87;47.79;98361.00;4828422;29;20477;-77
2022/06/20 04:33:18;;;;;;;;;;;;;;;22.98;45.98;98360.28;4842185;29;19953;-78
2022/06/20 04:36:05;;;;;;;;;;;;;;;22.91;45.01;98359.50;4827892;29;19935;-80
2022/06/20 04:38:57;;;;;;;;;;;;;;;22.80;45.69;98357.50;4828003;29;19934;-79
2022/06/20 04:41:44;;;;;;;;;;;;;;;22.84;45.02;98355.16;4829187;29;19935;-83
2022/06/20 04:44:34;;;;;;;;;;;;;;;22.93;45.03;98351.94;4818513;29;20029;-79
2022/06/20 04:47:39;;;;;;;;;;;;;;;23.31;44.59;98337.22;4845142;29;20032;-83
2022/06/20 04:50:25;;;;;;;;;;;;;;;23.62;44.23;98332.59;4831505;29;20399;-78
2022/06/20 04:53:11;;;;;;;;;;;;;;;23.72;43.30;98332.91;4831498;29;19936;-78
2022/06/20 04:56:00;;;;;;;;;;;;;;;23.79;43.39;98325.47;4845113;29;19985;-78
2022/06/20 04:58:52;;;;;;;;;;;;;;;23.66;43.98;98312.00;4831184;29;19971;-78
2022/06/20 05:01:36;;;;;;;;;;;;;;;23.94;43.68;98303.19;4845683;29;19936;-80
2022/06/20 05:04:21;;;;;;;;;;;;;;;24.01;43.31;98303.09;4818408;29;19935;-79
2022/06/20 05:07:10;;;;;;;;;;;;;;;24.06;42.98;98305.94;4830778;29;19951;-79
2022/06/20 05:09:57;;;;;;;;;;;;;;;24.30;43.15;98299.47;4831120;29;19944;-78
2022/06/20 05:12:41;;;;;;;;;;;;;;;24.18;43.13;98299.47;4818445;29;19936;-80
2022/06/20 05:15:36;;;;;;;;;;;;;;;24.06;43.41;98300.50;4845056;29;19951;-81
2022/06/20 05:18:28;;;;;;;;;;;;;;;24.12;43.68;98284.00;4844880;29;19935;-77
2022/06/20 05:21:15;;;;;;;;;;;;;;;23.96;43.58;98290.16;4844673;29;20465;-79
2022/06/20 05:24:02;;;;;;;;;;;;;;;23.74;43.61;98292.59;4830667;29;20516;-81
2022/06/20 05:26:48;;;;;;;;;;;;;;;23.68;43.70;98297.09;4831238;29;20620;-79
2022/06/20 05:29:34;;;;;;;;;;;;;;;23.98;43.70;98288.00;4830761;29;19935;-78
2022/06/20 05:32:29;;;;;;;;;;;;;;;24.16;42.93;98295.28;4844737;29;20034;-79
2022/06/20 05:35:17;;;;;;;;;;;;;;;24.40;43.23;98296.16;4830449;29;19935;-80
2022/06/20 05:37:52;;;;;;;;;;;;;;;24.37;43.07;98285.66;4827736;29;20420;-78
2022/06/20 05:40:27;;;;;;;;;;;;;;;24.32;43.30;98280.09;4827882;29;19928;-78
2022/06/20 05:42:52;;;;;;;;;;;;;;;24.49;43.67;98277.53;4827681;29;19936;-77
2022/06/20 05:45:20;;;;;;;;;;;;;;;24.67;43.38;98280.94;4827203;29;19929;-77
2022/06/20 05:47:53;;;;;;;;;;;;;;;25.04;43.11;98275.16;4828312;29;20404;-78
2022/06/20 05:50:19;;;;;;;;;;;;;;;25.18;43.13;98275.75;4797603;29;19928;-80
2022/06/20 05:52:46;;;;;;;;;;;;;;;25.23;42.59;98275.00;4796950;29;20479;-79
2022/06/20 05:55:15;;;;;;;;;;;;;;;25.31;42.50;98285.56;4812547;29;19951;-78
2022/06/20 05:57:45;;;;;;;;;;;;;;;25.42;42.18;98273.72;4827486;29;19929;-80
2022/06/20 06:00:22;;;;;;;;;;;;;;;25.39;42.56;98272.34;4828054;29;19928;-78
2022/06/20 06:02:54;;;;;;;;;;;;;;;25.31;43.00;98269.13;4812417;29;20026;-78
2022/06/20 06:05:35;;;;;;;;;;;;;;;24.89;44.25;98272.94;4804764;29;19928;-79
2022/06/20 06:08:19;;;;;;;;;;;;;;;25.12;44.40;98269.31;4809742;29;19959;-79
2022/06/20 06:10:47;;;;;;;;;;;;;;;25.28;43.82;98275.94;4843695;29;20001;-78
2022/06/20 06:13:25;;;;;;;;;;;;;;;25.27;44.17;98263.31;4811876;29;19928;-78
2022/06/20 06:18:50;;;;;;;;;;;;;;;25.44;43.81;98269.69;4843846;29;19930;-76
2022/06/20 06:21:17;;;;;;;;;;;;;;;25.42;43.82;98260.88;4812110;29;19940;-77
2022/06/20 06:23:43;;;;;;;;;;;;;;;25.46;43.37;98260.41;4843937;29;19929;-78
2022/06/20 06:26:12;;;;;;;;;;;;;;;25.12;43.21;98257.56;4827695;29;20019;-78
2022/06/20 06:28:39;;;;;;;;;;;;;;;25.09;43.31;98258.03;4827100;29;19929;-78
2022/06/20 06:31:25;;;;;;;;;;;;;;;25.06;43.89;98261.25;4826780;29;20420;-79
2022/06/20 06:33:54;;;;;;;;;;;;;;;24.96;44.37;98268.16;4827396;29;19981;-77
2022/06/20 06:36:36;;;;;;;;;;;;;;;24.76;44.67;98261.44;4805437;29;19929;-78
2022/06/20 06:39:05;;;;;;;;;;;;;;;24.44;42.07;98257.19;4796751;29;19928;-78
2022/06/20 06:41:33;;;;;;;;;;;;;;;24.54;41.62;98258.50;4817955;29;20018;-79
2022/06/20 06:43:59;;;;;;;;;;;;;;;24.41;41.28;98254.97;4813459;29;19932;-77
2022/06/20 06:46:29;;;;;;;;;;;;;;;24.30;40.91;98252.19;4833097;29;20046;-79
2022/06/20 06:49:16;;;;;;;;;;;;;;;24.16;41.46;98246.97;4856919;29;19938;-78
2022/06/20 06:52:01;;;;;;;;;;;;;;;23.89;41.84;98241.13;4817405;29;19928;-80
2022/06/20 06:54:47;;;;;;;;;;;;;;;23.84;42.61;98231.97;4829850;29;20021;-78
2022/06/20 06:57:12;;;;;;;;;;;;;;;23.97;42.81;98227.13;4816250;29;19951;-78
2022/06/20 06:59:42;;;;;;;;;;;;;;;23.98;42.47;98238.88;4841212;29;20389;-80
2022/06/20 07:02:14;;;;;;;;;;;;;;;23.85;42.60;98242.69;4832587;29;19929;-80
2022/06/20 07:04:58;;;;;;;;;;;;;;;23.82;43.57;98231.41;4832182;29;19932;-77
2022/06/20 07:07:39;;;;;;;;;;;;;;;23.76;43.04;98227.69;4817383;29;19928;-79
2022/06/20 07:10:07;;;;;;;;;;;;;;;23.49;44.13;98224.53;4813933;29;19940;-79
2022/06/20 07:13:02;;;;;;;;;;;;;;;23.23;45.12;98258.47;4832260;29;19928;-80
2022/06/20 07:15:28;;;;;;;;;;;;;;;22.96;47.12;98253.38;4807948;29;19936;-79
2022/06/20 07:17:56;;;;;;;;;;;;;;;22.58;46.61;98263.66;4831728;29;19932;-79
2022/06/20 07:20:28;;;;;;;;;;;;;;;22.41;47.47;98250.59;4804357;29;19935;-78
2022/06/20 07:22:58;;;;;;;;;;;;;;;22.30;48.11;98243.19;4846802;29;19932;-80
2022/06/20 07:25:26;;;;;;;;;;;;;;;22.24;49.07;98239.50;4797411;29;19928;-78
2022/06/20 07:28:10;;;;;;;;;;;;;;;22.25;49.48;98223.97;4817317;29;19992;-78
2022/06/20 07:30:44;;;;;;;;;;;;;;;22.23;49.68;98231.56;4831926;29;19928;-78
2022/06/20 07:33:17;;;;;;;;;;;;;;;22.11;49.98;98216.97;4816158;29;20002;-77
2022/06/20 07:35:45;;;;;;;;;;;;;;;22.16;50.53;98225.34;4847292;29;19996;-77
2022/06/20 07:38:15;;;;;;;;;;;;;;;22.16;50.81;98217.19;4831253;29;19935;-78
2022/06/20 07:41:13;;;;;;;;;;;;;;;22.22;51.22;98216.25;4818544;29;19928;-78
2022/06/20 07:43:39;;;;;;;;;;;;;;;22.15;51.04;98204.59;4805609;29;20303;-77
2022/06/20 07:46:14;;;;;;;;;;;;;;;22.15;51.28;98191.00;4840829;29;19932;-78
2022/06/20 07:48:41;;;;;;;;;;;;;;;22.06;51.17;98188.53;4841576;29;19928;-77
2022/06/20 07:51:14;;;;;;;;;;;;;;;22.05;51.42;98175.16;4826014;29;20023;-79
2022/06/20 07:53:39;;;;;;;;;;;;;;;21.94;51.68;98174.03;4825801;29;19928;-80
2022/06/20 07:56:24;;;;;;;;;;;;;;;21.86;51.76;98171.59;4841414;29;20072;-78
2022/06/20 07:58:54;;;;;;;;;;;;;;;21.69;51.56;98167.75;4842322;29;19936;-78
2022/06/20 08:01:27;;;;;;;;;;;;;;;21.59;51.84;98171.00;4810301;29;20386;-78
2022/06/20 08:03:56;;;;;;;;;;;;;;;21.40;52.12;98161.94;4841063;29;19935;-79
2022/06/20 08:06:22;;;;;;;;;;;;;;;21.32;52.48;98160.28;4840980;29;19928;-78
2022/06/20 08:09:06;;;;;;;;;;;;;;;21.28;52.57;98174.53;4856427;29;19955;-78
2022/06/20 08:11:42;;;;;;;;;;;;;;;21.15;53.02;98166.50;4841548;29;19928;-78
2022/06/20 08:14:34;;;;;;;;;;;;;;;21.28;54.50;98169.09;4826012;29;19935;-83
2022/06/20 08:17:08;;;;;;;;;;;;;;;21.37;52.35;98156.94;4819533;29;20387;-78
2022/06/20 08:19:34;;;;;;;;;;;;;;;21.39;52.63;98152.13;4845932;29;19968;-79
2022/06/20 08:22:18;;;;;;;;;;;;;;;21.37;52.16;98156.94;4844466;29;19935;-79
2022/06/20 08:24:46;;;;;;;;;;;;;;;21.31;52.40;98155.06;4844625;29;20464;-78
2022/06/20 08:27:21;;;;;;;;;;;;;;;21.32;52.46;98157.56;4829061;29;20035;-79
2022/06/20 08:30:11;;;;;;;;;;;;;;;21.38;52.50;98158.59;4829259;29;19928;-79
2022/06/20 08:32:52;;;;;;;;;;;;;;;21.46;52.68;98155.59;4811795;29;19968;-79
2022/06/20 08:35:24;;;;;;;;;;;;;;;21.46;52.86;98163.75;4813945;29;19983;-80
2022/06/20 08:37:54;;;;;;;;;;;;;;;21.43;53.50;98161.47;4830136;29;19963;-78
2022/06/20 08:40:35;;;;;;;;;;;;;;;21.40;54.03;98166.53;4830553;29;19928;-79
2022/06/20 08:43:20;;;;;;;;;;;;;;;21.43;54.54;98158.78;4831117;29;19928;-81
2022/06/20 08:45:54;;;;;;;;;;;;;;;21.38;54.70;98147.75;4829312;29;19932;-76
2022/06/20 08:48:39;;;;;;;;;;;;;;;21.37;54.94;98158.84;4798418;29;19985;-78
2022/06/20 08:51:08;;;;;;;;;;;;;;;21.06;53.66;98158.59;4829239;29;20446;-79
2022/06/20 08:53:53;;;;;;;;;;;;;;;20.45;55.68;98140.09;4813935;29;19929;-82
2022/06/20 08:56:24;;;;;;;;;;;;;;;20.26;57.33;98141.00;4829041;29;19928;-81
2022/06/20 08:58:56;;;;;;;;;;;;;;;20.34;57.09;98114.44;4798785;29;20465;-78
2022/06/20 09:01:35;;;;;;;;;;;;;;;20.48;56.50;98114.41;4814142;29;20023;-82
2022/06/20 09:04:04;;;;;;;;;;;;;;;20.61;55.63;98109.78;4814923;29;19929;-84
2022/06/20 09:06:35;;;;;;;;;;;;;;;20.68;55.72;98112.44;4813789;29;20281;-82
2022/06/20 09:09:15;;;;;;;;;;;;;;;20.79;55.41;98094.63;4798689;29;19939;-81
2022/06/20 09:12:01;;;;;;;;;;;;;;;20.72;55.00;98083.78;4812922;29;19935;-81
2022/06/20 09:14:31;;;;;;;;;;;;;;;20.51;54.77;98084.97;4828637;29;19929;-81
2022/06/20 09:17:04;;;;;;;;;;;;;;;20.63;55.49;98076.13;4813033;29;19980;-81
2022/06/20 09:19:50;;;;;;;;;;;;;;;20.73;54.88;98084.66;4798264;29;19982;-79
2022/06/20 09:22:28;;;;;;;;;;;;;;;20.79;54.53;98078.31;4824776;29;19933;-81
2022/06/20 09:25:12;;;;;;;;;;;;;;;20.91;54.55;98071.16;4813268;29;20304;-81
2022/06/20 09:27:41;;;;;;;;;;;;;;;21.05;53.79;98067.25;4812497;29;19928;-81
2022/06/20 09:30:06;;;;;;;;;;;;;;;21.08;54.12;98066.81;4812885;29;20096;-82
2022/06/20 09:32:38;;;;;;;;;;;;;;;21.20;53.63;98068.81;4844655;29;20416;-82
2022/06/20 09:35:03;;;;;;;;;;;;;;;21.28;52.79;98065.81;4812791;29;19929;-82
2022/06/20 09:37:35;;;;;;;;;;;;;;;21.30;52.68;98059.13;4828022;29;19929;-82
2022/06/20 09:40:25;;;;;;;;;;;;;;;21.33;52.85;98058.72;4827941;29;19929;-82
2022/06/20 09:43:07;;;;;;;;;;;;;;;21.37;52.79;98056.38;4844225;29;19929;-81
2022/06/20 09:45:44;;;;;;;;;;;;;;;21.18;53.10;98065.50;4828023;29;19993;-80
2022/06/20 09:48:29;;;;;;;;;;;;;;;20.95;53.75;98049.78;4812798;29;19975;-79
2022/06/20 09:51:03;;;;;;;;;;;;;;;20.92;53.94;98051.06;4828900;29;20424;-82
2022/06/20 09:53:44;;;;;;;;;;;;;;;20.86;54.03;98057.38;4829084;29;20291;-83
2022/06/20 09:56:41;;;;;;;;;;;;;;;20.70;54.90;98038.91;4827629;29;19929;-81
2022/06/20 09:59:25;;;;;;;;;;;;;;;20.65;55.57;98033.28;4826069;29;19975;-81
2022/06/20 10:01:57;;;;;;;;;;;;;;;20.70;55.20;98019.91;4827872;29;19929;-81
2022/06/20 10:04:32;;;;;;;;;;;;;;;20.70;55.55;98026.16;4810274;29;19928;-78
2022/06/20 10:07:07;;;;;;;;;;;;;;;20.63;55.76;98043.56;4834971;29;20388;-80
2022/06/20 10:09:40;;;;;;;;;;;;;;;20.57;55.62;98016.25;4796918;29;19939;-81
2022/06/20 10:12:15;;;;;;;;;;;;;;;20.68;55.60;98016.56;4826999;29;19950;-81
2022/06/20 10:14:53;;;;;;;;;;;;;;;20.69;55.54;98007.38;4827516;29;19971;-80
2022/06/20 10:17:21;;;;;;;;;;;;;;;20.70;56.10;98012.59;4827566;29;20359;-81
2022/06/20 10:20:12;;;;;;;;;;;;;;;20.75;55.93;98009.19;4812404;29;19932;-80
2022/06/20 10:22:51;;;;;;;;;;;;;;;20.83;55.38;98009.75;4805831;29;19971;-79
2022/06/20 10:25:23;;;;;;;;;;;;;;;20.78;55.98;98008.78;4812137;29;20288;-81
2022/06/20 10:27:56;;;;;;;;;;;;;;;20.82;56.03;98008.09;4827003;29;19928;-81
2022/06/20 10:30:41;;;;;;;;;;;;;;;20.81;56.29;98011.06;4843077;29;19928;-80
2022/06/20 10:33:42;;;;;;;;;;;;;;;20.70;56.26;98007.16;4826780;29;19937;-79
2022/06/20 10:36:08;;;;;;;;;;;;;;;20.77;56.20;98001.69;4735845;30;19930;-81
2022/06/20 10:38:45;;;;;;;;;;;;;;;20.72;56.79;97986.03;4807819;29;20281;-81
2022/06/20 10:41:23;;;;;;;;;;;;;;;20.72;56.87;97982.47;4841687;29;19952;-82
2022/06/20 10:44:03;;;;;;;;;;;;;;;20.63;57.38;97979.22;4842132;29;19985;-84
2022/06/20 10:46:39;;;;;;;;;;;;;;;20.51;57.63;97984.53;4811559;29;19983;-83
2022/06/20 10:49:15;;;;;;;;;;;;;;;20.46;57.45;97970.75;4811334;29;19932;-79
2022/06/20 10:52:02;;;;;;;;;;;;;;;20.50;57.64;97966.59;4811578;29;19978;-79
2022/06/20 10:54:42;;;;;;;;;;;;;;;20.68;57.13;97973.13;4802153;29;19936;-79
2022/06/20 10:57:17;;;;;;;;;;;;;;;20.74;56.74;97970.34;4818311;29;19993;-80
2022/06/20 10:59:43;;;;;;;;;;;;;;;20.81;56.55;97960.28;4840709;29;19928;-79
2022/06/20 11:02:34;;;;;;;;;;;;;;;21.03;56.02;97944.41;4833345;29;19935;-79
2022/06/20 11:05:26;;;;;;;;;;;;;;;21.32;54.86;97947.44;4815994;29;19936;-81
2022/06/20 11:08:11;;;;;;;;;;;;;;;21.61;54.56;97934.19;4780594;29;19935;-79
2022/06/20 11:10:37;;;;;;;;;;;;;;;21.72;53.78;97922.53;4834567;29;19932;-82
2022/06/20 11:13:27;;;;;;;;;;;;;;;21.94;53.06;97918.28;4833593;29;20431;-80
2022/06/20 11:15:52;;;;;;;;;;;;;;;21.78;53.60;97924.38;4821462;29;19987;-83
2022/06/20 11:18:27;;;;;;;;;;;;;;;21.71;53.52;97926.34;4841203;29;20381;-79
2022/06/20 11:20:53;;;;;;;;;;;;;;;21.54;53.89;97917.94;4856665;29;19932;-82
2022/06/20 11:23:26;;;;;;;;;;;;;;;21.33;54.98;97919.25;4826135;29;19929;-81
2022/06/20 11:26:10;;;;;;;;;;;;;;;21.08;55.95;97917.38;4826278;29;19951;-81
2022/06/20 11:28:39;;;;;;;;;;;;;;;21.09;56.09;97935.34;4826141;29;20278;-82
2022/06/20 11:31:05;;;;;;;;;;;;;;;21.02;56.65;97920.16;4841614;29;19982;-80
2022/06/20 11:34:01;;;;;;;;;;;;;;;21.03;56.79;97917.25;4841543;29;19935;-83
2022/06/20 11:36:47;;;;;;;;;;;;;;;21.04;56.68;97923.50;4826653;29;19929;-82
2022/06/20 11:39:31;;;;;;;;;;;;;;;20.96;57.31;97916.47;4818511;29;19936;-79
2022/06/20 11:42:04;;;;;;;;;;;;;;;20.92;57.46;97926.13;4830305;29;19936;-81
2022/06/20 11:44:30;;;;;;;;;;;;;;;20.84;57.55;97927.25;4812366;29;20039;-83
2022/06/20 11:47:04;;;;;;;;;;;;;;;20.73;57.84;97927.97;4828491;29;20024;-82
2022/06/20 11:49:30;;;;;;;;;;;;;;;20.66;57.79;97920.94;4842629;29;19928;-84
2022/06/20 11:52:16;;;;;;;;;;;;;;;20.71;58.82;97923.81;4811809;29;19935;-84
2022/06/20 11:54:48;;;;;;;;;;;;;;;20.66;59.06;97921.75;4846086;29;20313;-82
2022/06/20 11:57:22;;;;;;;;;;;;;;;20.68;58.91;97899.81;4846021;29;19928;-80
2022/06/20 12:00:00;;;;;;;;;;;;;;;20.58;58.99;97887.59;4813697;29;20261;-81
2022/06/20 12:02:45;;;;;;;;;;;;;;;20.69;59.05;97901.50;4829039;29;19939;-80
2022/06/20 12:05:29;;;;;;;;;;;;;;;20.64;59.24;97885.03;4814105;29;19935;-84
2022/06/20 12:08:01;;;;;;;;;;;;;;;20.64;59.46;97879.59;4829279;29;19928;-81
2022/06/20 12:10:27;;;;;;;;;;;;;;;20.61;60.09;97880.84;4829061;29;19933;-82
2022/06/20 12:12:53;;;;;;;;;;;;;;;20.51;60.30;97870.53;4813439;29;20300;-80
2022/06/20 12:15:37;;;;;;;;;;;;;;;20.44;60.48;97880.56;4828210;29;20288;-78
2022/06/20 12:18:21;;;;;;;;;;;;;;;20.29;60.89;97872.75;4829004;29;19935;-78
2022/06/20 12:23:46;;;;;;;;;;;;;;;20.21;61.81;97864.06;4813441;29;19928;-79
2022/06/20 12:26:20;;;;;;;;;;;;;;;20.08;62.29;97859.56;4799031;29;19929;-78
2022/06/20 12:28:48;;;;;;;;;;;;;;;20.06;62.26;97854.34;4844825;29;19936;-79
2022/06/20 12:31:25;;;;;;;;;;;;;;;20.09;63.04;97856.63;4813522;29;19932;-78
2022/06/20 12:33:51;;;;;;;;;;;;;;;20.28;62.50;97856.72;4828656;29;19935;-82
2022/06/20 12:36:22;;;;;;;;;;;;;;;20.42;62.49;97858.22;4828616;29;19933;-79
2022/06/20 12:38:54;;;;;;;;;;;;;;;20.51;62.22;97854.22;4828808;29;20051;-78
2022/06/20 12:41:22;;;;;;;;;;;;;;;20.63;61.74;97850.78;4813271;29;19981;-79
2022/06/20 12:43:54;;;;;;;;;;;;;;;20.59;62.03;97845.81;4812559;29;19928;-78
2022/06/20 12:46:43;;;;;;;;;;;;;;;20.71;61.96;97836.91;4813000;29;19928;-78
2022/06/20 12:49:14;;;;;;;;;;;;;;;20.75;61.74;97838.13;4802175;29;19977;-78
2022/06/20 12:51:58;;;;;;;;;;;;;;;20.85;61.64;97836.56;4814973;29;20397;-79
2022/06/20 12:54:27;;;;;;;;;;;;;;;20.88;61.92;97823.59;4798445;29;19935;-78
2022/06/20 12:57:05;;;;;;;;;;;;;;;20.89;61.80;97823.34;4813437;29;19928;-78
2022/06/20 12:59:49;;;;;;;;;;;;;;;20.88;62.07;97816.28;4827471;29;20373;-78
2022/06/20 13:02:33;;;;;;;;;;;;;;;20.72;62.38;97822.28;4844359;29;20290;-78
2022/06/20 13:05:28;;;;;;;;;;;;;;;20.59;62.87;97813.22;4827780;29;19972;-79
2022/06/20 13:08:19;;;;;;;;;;;;;;;20.57;63.06;97803.63;4811066;29;20427;-79
2022/06/20 13:10:48;;;;;;;;;;;;;;;20.46;63.21;97813.34;4827470;29;19980;-78
2022/06/20 13:13:13;;;;;;;;;;;;;;;20.39;63.90;97818.00;4811869;29;20035;-79
2022/06/20 13:15:51;;;;;;;;;;;;;;;20.25;63.93;97806.41;4827300;29;19984;-78
2022/06/20 13:18:38;;;;;;;;;;;;;;;20.19;64.64;97811.88;4812662;29;20008;-77
2022/06/20 13:21:16;;;;;;;;;;;;;;;20.23;64.37;97807.69;4822366;29;19928;-77
2022/06/20 13:23:52;;;;;;;;;;;;;;;20.19;65.19;97811.88;4818939;29;20427;-80
2022/06/20 13:26:26;;;;;;;;;;;;;;;20.03;65.74;97803.25;4843704;29;19928;-78
2022/06/20 13:28:52;;;;;;;;;;;;;;;19.99;67.02;97796.63;4845718;29;19928;-78
2022/06/20 13:31:22;;;;;;;;;;;;;;;19.93;67.23;97805.63;4849001;29;19976;-81
2022/06/20 13:33:59;;;;;;;;;;;;;;;20.04;67.53;97804.91;4828498;29;19932;-82
2022/06/20 13:36:30;;;;;;;;;;;;;;;20.24;66.24;97799.34;4813536;29;19928;-82
2022/06/20 13:39:05;;;;;;;;;;;;;;;20.41;66.13;97799.59;4829477;29;19939;-87
2022/06/20 13:41:40;;;;;;;;;;;;;;;20.58;65.81;97800.72;4827900;29;19936;-78
2022/06/20 13:44:18;;;;;;;;;;;;;;;20.45;66.28;97784.50;4843040;29;19932;-79
2022/06/20 13:46:57;;;;;;;;;;;;;;;20.35;66.71;97795.91;4828131;29;19980;-82
2022/06/20 13:49:46;;;;;;;;;;;;;;;20.37;67.02;97782.09;4801223;29;19928;-87
2022/06/20 13:52:15;;;;;;;;;;;;;;;20.44;67.03;97788.28;4813884;29;19951;-81
2022/06/20 13:54:51;;;;;;;;;;;;;;;20.55;67.26;97784.88;4813271;29;19952;-92
2022/06/20 13:57:20;;;;;;;;;;;;;;;20.78;66.93;97777.94;4830484;29;20074;-91
2022/06/20 13:59:49;;;;;;;;;;;;;;;21.07;66.05;97765.47;4829802;29;19932;-90
2022/06/20 14:02:29;;;;;;;;;;;;;;;21.01;65.45;97777.25;4826692;29;20319;-80